createdAt,value
2022-12-14T00:01:56.660Z,1.20
2022-12-14T00:04:23.930Z,1.40
2022-12-14T00:06:51.278Z,1.30
2022-12-14T00:09:18.701Z,1.40
2022-12-14T00:11:46.140Z,1.40
2022-12-14T00:14:14.948Z,1.30
2022-12-14T00:16:42.275Z,1.40
2022-12-14T00:19:12.924Z,1.40
2022-12-14T00:21:40.220Z,1.40
2022-12-14T00:24:07.622Z,1.30
2022-12-14T00:26:37.525Z,1.40
2022-12-14T00:29:04.883Z,1.40
2022-12-14T00:31:32.754Z,1.40
2022-12-14T00:34:01.559Z,1.40
2022-12-14T00:36:31.482Z,1.40
2022-12-14T00:38:59.364Z,3.00
2022-12-14T00:41:26.707Z,1.40
2022-12-14T00:43:53.951Z,1.40
2022-12-14T00:46:21.392Z,1.40
2022-12-14T00:48:50.185Z,1.30
2022-12-14T00:51:18.479Z,1.40
2022-12-14T00:53:45.895Z,1.40
2022-12-14T00:56:13.493Z,2.70
2022-12-14T00:58:40.888Z,1.40
2022-12-14T01:01:13.071Z,1.40
2022-12-14T01:03:44.191Z,1.50
2022-12-14T01:06:22.064Z,1.50
2022-12-14T01:08:49.656Z,1.50
2022-12-14T01:11:17.139Z,1.50
2022-12-14T01:13:44.729Z,1.60
2022-12-14T01:16:20.594Z,1.50
2022-12-14T01:18:48.107Z,1.50
2022-12-14T01:21:21.579Z,1.60
2022-12-14T01:23:52.952Z,1.50
2022-12-14T01:26:21.388Z,1.50
2022-12-14T01:28:56.381Z,1.50
2022-12-14T01:31:28.211Z,1.60
2022-12-14T01:33:56.012Z,1.60
2022-12-14T01:36:29.101Z,1.60
2022-12-14T01:38:58.845Z,1.70
2022-12-14T01:41:26.109Z,1.60
2022-12-14T01:43:57.229Z,1.60
2022-12-14T01:46:33.362Z,1.60
2022-12-14T01:49:13.379Z,1.60
2022-12-14T01:51:46.615Z,1.50
2022-12-14T01:54:15.477Z,1.60
2022-12-14T01:56:46.494Z,1.60
2022-12-14T01:59:19.099Z,1.60
2022-12-14T02:01:48.351Z,1.60
2022-12-14T02:04:17.176Z,1.70
2022-12-14T02:06:48.455Z,1.60
2022-12-14T02:09:22.737Z,1.60
2022-12-14T02:12:11.751Z,1.60
2022-12-14T02:14:39.531Z,1.60
2022-12-14T02:17:08.724Z,1.60
2022-12-14T02:19:37.436Z,1.70
2022-12-14T02:22:11.504Z,1.60
2022-12-14T02:24:58.546Z,1.10
2022-12-14T02:27:41.363Z,1.50
2022-12-14T02:30:12.360Z,1.50
2022-12-14T02:32:58.517Z,1.50
2022-12-14T02:35:31.800Z,1.50
2022-12-14T02:38:09.499Z,1.50
2022-12-14T02:40:45.426Z,1.40
2022-12-14T02:43:18.210Z,1.30
2022-12-14T02:46:04.508Z,1.40
2022-12-14T02:48:50.635Z,1.30
2022-12-14T02:51:29.894Z,1.30
2022-12-14T02:54:03.901Z,1.30
2022-12-14T02:56:47.654Z,1.00
2022-12-14T02:59:16.456Z,1.20
2022-12-14T03:01:58.392Z,1.20
2022-12-14T03:04:30.448Z,1.20
2022-12-14T03:07:04.600Z,1.20
2022-12-14T03:09:32.618Z,1.30
2022-12-14T03:12:10.609Z,1.30
2022-12-14T03:14:46.574Z,1.30
2022-12-14T03:17:24.947Z,1.30
2022-12-14T03:20:07.477Z,1.20
2022-12-14T03:23:03.001Z,1.20
2022-12-14T03:25:35.563Z,1.20
2022-12-14T03:28:11.999Z,1.10
2022-12-14T03:31:00.421Z,1.10
2022-12-14T03:33:31.533Z,1.20
2022-12-14T03:36:02.703Z,1.20
2022-12-14T03:38:51.071Z,1.20
2022-12-14T03:41:31.565Z,1.30
2022-12-14T03:44:33.213Z,1.80
2022-12-14T03:47:18.703Z,2.20
2022-12-14T03:50:04.716Z,1.20
2022-12-14T03:52:43.621Z,1.20
2022-12-14T03:55:34.103Z,1.20
2022-12-14T03:58:18.527Z,1.30
2022-12-14T04:00:55.706Z,1.30
2022-12-14T04:03:59.070Z,1.20
2022-12-14T04:06:54.263Z,1.50
2022-12-14T04:09:30.661Z,1.20
2022-12-14T04:12:40.844Z,3.40
2022-12-14T04:15:40.725Z,1.40
2022-12-14T04:18:31.120Z,1.50
2022-12-14T04:21:13.395Z,1.60
2022-12-14T04:24:04.917Z,1.60
2022-12-14T04:26:40.402Z,1.60
2022-12-14T04:29:30.503Z,1.60
2022-12-14T04:32:44.150Z,1.60
2022-12-14T04:35:18.567Z,1.50
2022-12-14T04:37:52.302Z,1.60
2022-12-14T04:40:46.221Z,1.50
2022-12-14T04:43:21.748Z,1.60
2022-12-14T04:46:09.342Z,1.50
2022-12-14T04:48:42.885Z,1.70
2022-12-14T04:51:25.610Z,1.50
2022-12-14T04:53:59.844Z,1.50
2022-12-14T04:56:46.282Z,1.50
2022-12-14T04:59:13.887Z,0.20
2022-12-14T05:02:00.725Z,1.50
2022-12-14T05:04:55.550Z,1.50
2022-12-14T05:07:35.202Z,1.40
2022-12-14T05:10:30.650Z,1.40
2022-12-14T05:13:05.277Z,1.40
2022-12-14T05:15:46.410Z,1.40
2022-12-14T05:18:14.515Z,1.40
2022-12-14T05:20:41.898Z,1.50
2022-12-14T05:23:09.617Z,1.50
2022-12-14T05:25:36.900Z,1.20
2022-12-14T05:28:04.397Z,1.40
2022-12-14T05:30:32.253Z,1.40
2022-12-14T05:32:59.656Z,1.40
2022-12-14T05:35:26.967Z,1.30
2022-12-14T05:37:54.625Z,1.20
2022-12-14T05:40:22.019Z,1.20
2022-12-14T05:42:55.293Z,1.20
2022-12-14T05:45:23.083Z,1.10
2022-12-14T05:47:50.375Z,1.10
2022-12-14T05:50:17.671Z,1.10
2022-12-14T05:52:45.377Z,1.10
2022-12-14T05:55:12.687Z,1.00
2022-12-14T05:57:40.396Z,1.00
2022-12-14T06:00:09.456Z,1.00
2022-12-14T06:02:36.749Z,1.60
2022-12-14T06:05:04.303Z,0.90
2022-12-14T06:07:31.552Z,0.80
2022-12-14T06:09:58.792Z,0.80
2022-12-14T06:12:26.276Z,0.80
2022-12-14T06:14:53.556Z,0.80
2022-12-14T06:17:20.829Z,0.80
2022-12-14T06:19:50.365Z,0.80
2022-12-14T06:22:19.497Z,0.80
2022-12-14T06:24:46.759Z,0.70
2022-12-14T06:27:14.028Z,0.80
2022-12-14T06:29:41.851Z,0.70
2022-12-14T06:32:09.158Z,0.70
2022-12-14T06:34:39.863Z,3.90
2022-12-14T06:37:08.036Z,0.70
2022-12-14T06:39:35.550Z,0.60
2022-12-14T06:42:03.501Z,0.40
2022-12-14T06:44:30.948Z,0.60
2022-12-14T06:46:58.318Z,0.60
2022-12-14T06:49:25.652Z,0.60
2022-12-14T06:51:52.940Z,0.60
2022-12-14T06:54:20.294Z,0.70
2022-12-14T06:56:48.279Z,0.50
2022-12-14T06:59:16.667Z,0.40
2022-12-14T07:01:44.305Z,0.50
2022-12-14T07:04:11.912Z,0.50
2022-12-14T07:06:40.936Z,0.50
2022-12-14T07:09:12.386Z,1.50
2022-12-14T07:11:40.249Z,0.70
2022-12-14T07:14:07.592Z,0.70
2022-12-14T07:16:37.175Z,0.70
2022-12-14T07:19:05.100Z,1.50
2022-12-14T07:21:33.707Z,0.80
2022-12-14T07:24:01.722Z,0.80
2022-12-14T07:26:30.794Z,0.80
2022-12-14T07:29:02.349Z,0.80
2022-12-14T07:31:29.980Z,0.70
2022-12-14T07:33:59.220Z,0.70
2022-12-14T07:36:28.450Z,0.70
2022-12-14T07:38:56.198Z,0.70
2022-12-14T07:41:26.968Z,0.60
2022-12-14T07:43:55.618Z,0.60
2022-12-14T07:46:27.953Z,0.50
2022-12-14T07:48:57.619Z,1.30
2022-12-14T07:51:30.654Z,0.60
2022-12-14T07:53:58.776Z,0.50
2022-12-14T07:56:29.129Z,0.50
2022-12-14T07:58:58.436Z,0.60
2022-12-14T08:01:28.327Z,0.60
2022-12-14T08:04:10.538Z,0.60
2022-12-14T08:06:39.975Z,1.40
2022-12-14T08:09:08.972Z,0.60
2022-12-14T08:11:37.038Z,0.60
2022-12-14T08:14:17.434Z,0.60
2022-12-14T08:16:46.526Z,0.50
2022-12-14T08:19:15.187Z,1.10
2022-12-14T08:21:42.958Z,0.50
2022-12-14T08:24:11.999Z,1.00
2022-12-14T08:26:39.816Z,0.50
2022-12-14T08:29:07.476Z,0.50
2022-12-14T08:31:35.365Z,0.70
2022-12-14T08:34:03.388Z,-0.40
2022-12-14T08:36:34.211Z,0.50
2022-12-14T08:39:07.373Z,0.50
2022-12-14T08:41:35.250Z,0.50
2022-12-14T08:44:04.397Z,0.80
2022-12-14T08:46:33.674Z,0.60
2022-12-14T08:49:01.519Z,0.60
2022-12-14T08:51:29.364Z,0.60
2022-12-14T08:53:57.472Z,0.60
2022-12-14T08:56:27.462Z,0.80
2022-12-14T08:58:55.398Z,0.70
2022-12-14T09:01:32.157Z,0.70
2022-12-14T09:04:08.613Z,0.70
2022-12-14T09:06:39.070Z,0.70
2022-12-14T09:09:15.257Z,0.60
2022-12-14T09:11:44.787Z,0.60
2022-12-14T09:14:12.216Z,0.10
2022-12-14T09:16:40.207Z,0.70
2022-12-14T09:19:07.722Z,0.70
2022-12-14T09:21:36.897Z,0.70
2022-12-14T09:24:06.432Z,0.70
2022-12-14T09:26:33.954Z,0.70
2022-12-14T09:29:01.431Z,0.70
2022-12-14T09:31:28.950Z,0.80
2022-12-14T09:33:57.019Z,0.90
2022-12-14T09:36:28.489Z,0.90
2022-12-14T09:38:57.990Z,0.90
2022-12-14T09:41:34.620Z,0.90
2022-12-14T09:44:18.723Z,0.90
2022-12-14T09:47:15.954Z,1.00
2022-12-14T09:49:48.750Z,1.10
2022-12-14T09:52:38.756Z,1.20
2022-12-14T09:55:17.351Z,1.00
2022-12-14T09:57:46.434Z,1.00
2022-12-14T10:00:19.506Z,1.00
2022-12-14T10:03:19.379Z,0.90
2022-12-14T10:06:11.899Z,1.00
2022-12-14T10:08:54.721Z,0.90
2022-12-14T10:11:44.302Z,0.90
2022-12-14T10:14:24.757Z,0.90
2022-12-14T10:17:04.369Z,0.90
2022-12-14T10:19:40.692Z,1.00
2022-12-14T10:22:13.560Z,1.10
2022-12-14T10:24:47.649Z,1.80
2022-12-14T10:27:23.011Z,1.00
2022-12-14T10:30:17.754Z,1.00
2022-12-14T10:32:54.767Z,0.90
2022-12-14T10:35:52.784Z,0.90
2022-12-14T10:38:42.195Z,0.90
2022-12-14T10:41:29.029Z,0.90
2022-12-14T10:44:27.128Z,0.90
2022-12-14T10:47:04.999Z,0.80
2022-12-14T10:49:41.861Z,0.90
2022-12-14T10:52:18.720Z,0.90
2022-12-14T10:55:02.501Z,0.90
2022-12-14T10:57:29.879Z,1.50
2022-12-14T11:00:08.418Z,3.80
2022-12-14T11:02:42.080Z,2.40
2022-12-14T11:05:17.330Z,1.00
2022-12-14T11:07:45.946Z,1.00
2022-12-14T11:10:21.094Z,1.00
2022-12-14T11:13:05.853Z,0.80
2022-12-14T11:15:51.380Z,1.00
2022-12-14T11:18:20.034Z,1.00
2022-12-14T11:20:54.568Z,1.30
2022-12-14T11:23:38.045Z,1.80
2022-12-14T11:26:11.416Z,1.10
2022-12-14T11:28:50.007Z,1.00
2022-12-14T11:31:20.697Z,1.00
2022-12-14T11:33:54.062Z,1.00
2022-12-14T11:36:26.288Z,1.00
2022-12-14T11:39:01.849Z,0.80
2022-12-14T11:42:07.015Z,1.10
2022-12-14T11:44:36.908Z,1.10
2022-12-14T11:47:16.783Z,1.10
2022-12-14T11:49:50.066Z,1.10
2022-12-14T11:52:25.257Z,1.10
2022-12-14T11:54:52.457Z,1.50
2022-12-14T11:57:24.656Z,1.20
2022-12-14T12:00:04.779Z,1.30
2022-12-14T12:02:48.946Z,1.30
2022-12-14T12:05:19.972Z,1.40
2022-12-14T12:07:50.021Z,1.40
2022-12-14T12:10:40.956Z,1.10
2022-12-14T12:13:30.293Z,1.50
2022-12-14T12:16:01.936Z,1.50
2022-12-14T12:18:50.186Z,1.40
2022-12-14T12:21:26.663Z,1.50
2022-12-14T12:23:59.510Z,1.50
2022-12-14T12:26:43.497Z,1.50
2022-12-14T12:29:42.399Z,1.50
2022-12-14T12:32:15.240Z,1.70
2022-12-14T12:35:11.012Z,1.50
2022-12-14T12:37:48.890Z,1.50
2022-12-14T12:40:35.523Z,1.50
2022-12-14T12:43:11.724Z,1.50
2022-12-14T12:45:54.430Z,1.50
2022-12-14T12:48:44.060Z,1.60
2022-12-14T12:51:17.208Z,1.50
2022-12-14T12:53:48.163Z,1.50
2022-12-14T12:56:39.260Z,1.50
2022-12-14T12:59:07.534Z,1.50
2022-12-14T13:01:40.651Z,1.50
2022-12-14T13:04:13.632Z,1.40
2022-12-14T13:07:05.255Z,2.10
2022-12-14T13:09:38.821Z,1.40
2022-12-14T13:12:14.517Z,1.40
2022-12-14T13:14:49.636Z,1.50
2022-12-14T13:17:37.421Z,1.80
2022-12-14T13:20:15.620Z,1.60
2022-12-14T13:22:43.528Z,1.60
2022-12-14T13:25:23.128Z,1.60
2022-12-14T13:28:17.797Z,1.70
2022-12-14T13:30:57.429Z,1.70
2022-12-14T13:33:27.745Z,1.80
2022-12-14T13:36:24.804Z,1.70
2022-12-14T13:39:17.238Z,1.80
2022-12-14T13:41:51.469Z,1.70
2022-12-14T13:44:44.111Z,1.70
2022-12-14T13:47:16.584Z,1.70
2022-12-14T13:50:26.649Z,1.60
2022-12-14T13:52:46.668Z,1.60
2022-12-14T13:55:47.691Z,1.50
2022-12-14T13:58:37.493Z,1.40
2022-12-14T14:01:13.742Z,1.30
2022-12-14T14:03:42.576Z,1.20
2022-12-14T14:06:13.418Z,1.20
2022-12-14T14:08:43.512Z,1.10
2022-12-14T14:11:38.901Z,1.00
2022-12-14T14:14:18.745Z,0.90
2022-12-14T14:16:51.441Z,0.90
2022-12-14T14:19:27.741Z,0.90
2022-12-14T14:22:22.169Z,0.90
2022-12-14T14:24:55.684Z,0.90
2022-12-14T14:27:28.966Z,1.00
2022-12-14T14:29:58.117Z,1.00
2022-12-14T14:32:33.319Z,1.00
2022-12-14T14:35:03.776Z,1.90
2022-12-14T14:37:34.775Z,1.00
2022-12-14T14:40:51.450Z,1.00
2022-12-14T14:43:27.990Z,0.70
2022-12-14T14:45:59.064Z,0.70
2022-12-14T14:48:37.630Z,0.80
2022-12-14T14:51:16.671Z,0.70
2022-12-14T14:53:44.886Z,0.60
2022-12-14T14:56:30.339Z,0.50
2022-12-14T14:59:19.428Z,0.60
2022-12-14T15:01:50.281Z,0.60
2022-12-14T15:04:36.406Z,0.60
2022-12-14T15:07:13.695Z,0.50
2022-12-14T15:09:46.424Z,0.60
2022-12-14T15:12:37.278Z,0.60
2022-12-14T15:15:23.651Z,1.50
2022-12-14T15:17:51.161Z,0.50
2022-12-14T15:20:25.779Z,0.60
2022-12-14T15:22:56.030Z,0.60
2022-12-14T15:25:25.184Z,0.60
2022-12-14T15:27:54.220Z,0.60
2022-12-14T15:30:27.534Z,0.60
2022-12-14T15:33:04.172Z,0.60
2022-12-14T15:35:42.524Z,0.60
2022-12-14T15:38:25.552Z,0.60
2022-12-14T15:40:58.964Z,0.70
2022-12-14T15:43:28.565Z,0.70
2022-12-14T15:46:04.645Z,0.70
2022-12-14T15:48:34.746Z,0.70
2022-12-14T15:51:05.620Z,0.80
2022-12-14T15:53:36.785Z,0.80
2022-12-14T15:56:14.330Z,0.80
2022-12-14T15:58:44.087Z,0.90
2022-12-14T16:01:17.430Z,0.90
2022-12-14T16:03:47.470Z,1.00
2022-12-14T16:06:19.786Z,1.00
2022-12-14T16:09:09.071Z,1.00
2022-12-14T16:11:43.191Z,1.00
2022-12-14T16:14:38.279Z,1.10
2022-12-14T16:17:05.935Z,1.20
2022-12-14T16:19:57.559Z,1.10
2022-12-14T16:22:28.836Z,1.10
2022-12-14T16:25:14.642Z,1.20
2022-12-14T16:27:45.276Z,1.20
2022-12-14T16:30:25.806Z,1.10
2022-12-14T16:33:17.462Z,0.90
2022-12-14T16:35:50.777Z,1.40
2022-12-14T16:38:21.178Z,1.40
2022-12-14T16:40:48.547Z,1.40
2022-12-14T16:43:35.336Z,1.40
2022-12-14T16:46:05.819Z,1.40
2022-12-14T16:48:35.997Z,1.40
2022-12-14T16:51:44.351Z,1.50
2022-12-14T16:54:32.531Z,2.20
2022-12-14T16:57:06.908Z,2.50
2022-12-14T16:59:41.225Z,1.60
2022-12-14T17:02:25.741Z,1.60
2022-12-14T17:04:53.684Z,1.60
2022-12-14T17:07:25.375Z,1.50
2022-12-14T17:09:54.751Z,1.50
2022-12-14T17:12:25.018Z,1.30
2022-12-14T17:14:52.805Z,1.40
2022-12-14T17:17:30.171Z,1.40
2022-12-14T17:19:57.655Z,1.40
2022-12-14T17:22:33.220Z,1.40
2022-12-14T17:25:02.488Z,1.40
2022-12-14T17:27:29.920Z,1.50
2022-12-14T17:29:57.585Z,1.60
2022-12-14T17:32:30.388Z,1.70
2022-12-14T17:34:59.149Z,1.60
2022-12-14T17:37:32.438Z,1.60
2022-12-14T17:40:04.019Z,1.60
2022-12-14T17:42:31.635Z,2.30
2022-12-14T17:45:00.448Z,1.70
2022-12-14T17:47:27.866Z,1.80
2022-12-14T17:49:55.607Z,1.70
2022-12-14T17:52:31.973Z,2.40
2022-12-14T17:54:59.880Z,1.70
2022-12-14T17:57:27.513Z,1.70
2022-12-14T18:00:13.388Z,1.70
2022-12-14T18:02:41.788Z,1.70
2022-12-14T18:05:20.688Z,2.90
2022-12-14T18:07:49.741Z,1.70
2022-12-14T18:10:18.708Z,1.70
2022-12-14T18:12:47.115Z,1.80
2022-12-14T18:15:24.818Z,1.80
2022-12-14T18:17:52.211Z,1.80
2022-12-14T18:20:23.519Z,1.70
2022-12-14T18:22:51.822Z,3.20
2022-12-14T18:25:38.296Z,1.80
2022-12-14T18:28:07.037Z,1.90
2022-12-14T18:30:41.740Z,1.90
2022-12-14T18:33:16.774Z,1.90
2022-12-14T18:35:45.246Z,2.00
2022-12-14T18:38:13.995Z,2.30
2022-12-14T18:40:47.753Z,1.90
2022-12-14T18:43:28.603Z,1.90
2022-12-14T18:45:56.994Z,2.10
2022-12-14T18:48:25.213Z,4.60
2022-12-14T18:50:55.157Z,2.00
2022-12-14T18:53:28.419Z,2.10
2022-12-14T18:55:56.427Z,2.10
2022-12-14T18:58:26.842Z,2.10
2022-12-14T19:00:57.938Z,2.10
2022-12-14T19:03:26.223Z,2.20
2022-12-14T19:06:34.703Z,2.10
2022-12-14T19:08:53.822Z,2.10
2022-12-14T19:11:34.603Z,2.10
2022-12-14T19:14:02.556Z,2.10
2022-12-14T19:16:29.914Z,2.00
2022-12-14T19:18:57.787Z,2.10
2022-12-14T19:21:26.342Z,4.00
2022-12-14T19:23:53.841Z,2.00
2022-12-14T19:26:21.290Z,2.00
2022-12-14T19:28:48.950Z,1.90
2022-12-14T19:31:16.369Z,1.80
2022-12-14T19:33:43.902Z,1.90
2022-12-14T19:36:11.498Z,1.90
2022-12-14T19:38:38.899Z,1.90
2022-12-14T19:41:08.981Z,1.50
2022-12-14T19:43:36.426Z,1.80
2022-12-14T19:46:12.131Z,1.80
2022-12-14T19:48:40.527Z,1.80
2022-12-14T19:51:13.295Z,1.80
2022-12-14T19:53:42.780Z,1.80
2022-12-14T19:56:11.145Z,1.80
2022-12-14T19:58:40.918Z,1.70
2022-12-14T20:01:09.583Z,1.70
2022-12-14T20:03:37.763Z,1.70
2022-12-14T20:06:06.667Z,1.70
2022-12-14T20:08:35.426Z,1.70
2022-12-14T20:11:07.728Z,1.70
2022-12-14T20:13:35.119Z,1.70
2022-12-14T20:16:02.572Z,1.60
2022-12-14T20:18:30.884Z,4.10
2022-12-14T20:21:03.679Z,1.60
2022-12-14T20:23:33.199Z,1.60
2022-12-14T20:26:07.267Z,1.60
2022-12-14T20:28:34.866Z,1.60
2022-12-14T20:31:06.445Z,1.50
2022-12-14T20:33:34.438Z,1.70
2022-12-14T20:36:02.098Z,1.50
2022-12-14T20:38:29.576Z,1.50
2022-12-14T20:41:07.330Z,1.40
2022-12-14T20:43:36.916Z,1.40
2022-12-14T20:46:05.274Z,1.40
2022-12-14T20:48:33.506Z,2.70
2022-12-14T20:51:03.118Z,1.40
2022-12-14T20:53:31.405Z,1.40
2022-12-14T20:56:04.108Z,1.30
2022-12-14T20:58:31.999Z,1.30
2022-12-14T21:01:09.684Z,1.30
2022-12-14T21:03:37.328Z,1.30
2022-12-14T21:06:05.440Z,1.30
2022-12-14T21:08:52.743Z,1.20
2022-12-14T21:11:38.906Z,1.20
2022-12-14T21:14:06.182Z,1.90
2022-12-14T21:16:33.538Z,1.20
2022-12-14T21:19:01.095Z,1.20
2022-12-14T21:21:28.390Z,1.20
2022-12-14T21:23:55.927Z,1.20
2022-12-14T21:26:23.304Z,1.20
2022-12-14T21:28:50.606Z,1.10
2022-12-14T21:31:17.939Z,1.10
2022-12-14T21:33:49.707Z,-0.20
2022-12-14T21:36:17.387Z,1.00
2022-12-14T21:38:45.214Z,2.30
2022-12-14T21:41:31.178Z,1.00
2022-12-14T21:43:59.784Z,1.00
2022-12-14T21:46:29.588Z,1.10
2022-12-14T21:48:57.096Z,2.40
2022-12-14T21:51:24.362Z,1.00
2022-12-14T21:53:59.869Z,1.00
2022-12-14T21:56:48.860Z,1.40
2022-12-14T21:59:22.365Z,0.90
2022-12-14T22:01:49.814Z,0.90
2022-12-14T22:04:17.201Z,0.90
2022-12-14T22:06:44.496Z,0.80
2022-12-14T22:09:12.023Z,0.80
2022-12-14T22:11:39.387Z,0.80
2022-12-14T22:14:06.709Z,0.80
2022-12-14T22:16:34.785Z,0.70
2022-12-14T22:19:02.237Z,0.80
2022-12-14T22:21:29.630Z,0.80
2022-12-14T22:23:57.306Z,0.70
2022-12-14T22:26:28.255Z,0.80
2022-12-14T22:28:55.565Z,1.70
2022-12-14T22:31:23.073Z,0.80
2022-12-14T22:33:51.349Z,0.70
2022-12-14T22:36:18.809Z,0.70
2022-12-14T22:38:46.059Z,0.70
2022-12-14T22:41:15.434Z,0.70
2022-12-14T22:43:44.157Z,0.70
2022-12-14T22:46:13.349Z,0.60
2022-12-14T22:48:41.356Z,0.60
2022-12-14T22:51:12.249Z,0.60
2022-12-14T22:53:39.613Z,0.50
2022-12-14T22:56:18.973Z,0.50
2022-12-14T22:58:51.945Z,0.60
2022-12-14T23:01:19.868Z,0.50
2022-12-14T23:03:47.615Z,0.60
2022-12-14T23:06:17.692Z,0.50
2022-12-14T23:09:05.959Z,0.50
2022-12-14T23:11:53.039Z,0.50
2022-12-14T23:14:39.632Z,0.50
2022-12-14T23:17:26.425Z,0.50
2022-12-14T23:20:12.099Z,0.50
2022-12-14T23:22:58.000Z,0.50
2022-12-14T23:25:44.061Z,0.50
2022-12-14T23:28:30.266Z,0.50
2022-12-14T23:31:17.433Z,0.50
2022-12-14T23:34:03.532Z,1.50
2022-12-14T23:36:49.425Z,0.50
2022-12-14T23:39:35.630Z,0.50
2022-12-14T23:42:21.974Z,0.50
2022-12-14T23:45:07.735Z,0.50
2022-12-14T23:47:53.888Z,1.60
2022-12-14T23:50:39.740Z,0.50
2022-12-14T23:53:26.857Z,0.50
2022-12-14T23:56:13.691Z,0.50
2022-12-14T23:58:59.417Z,1.10
